createdAt,value
2023-05-03T00:01:48.153Z,9.85
2023-05-03T00:04:17.005Z,10.00
2023-05-03T00:06:44.976Z,10.55
2023-05-03T00:09:12.349Z,11.23
2023-05-03T00:11:39.661Z,10.25
2023-05-03T00:14:06.935Z,10.88
2023-05-03T00:16:34.337Z,11.00
2023-05-03T00:19:01.673Z,10.93
2023-05-03T00:21:29.136Z,10.98
2023-05-03T00:23:56.536Z,11.25
2023-05-03T00:26:24.114Z,11.00
2023-05-03T00:28:51.460Z,11.25
2023-05-03T00:31:19.644Z,11.10
2023-05-03T00:33:47.023Z,12.32
2023-05-03T00:36:15.021Z,12.10
2023-05-03T00:38:42.366Z,12.45
2023-05-03T00:41:10.215Z,12.82
2023-05-03T00:43:37.875Z,12.63
2023-05-03T00:46:15.909Z,12.73
2023-05-03T00:48:49.195Z,12.57
2023-05-03T00:51:16.637Z,12.80
2023-05-03T00:53:43.995Z,13.63
2023-05-03T00:56:12.029Z,13.55
2023-05-03T00:58:40.623Z,14.00
2023-05-03T01:01:09.626Z,13.85
2023-05-03T01:03:39.701Z,12.35
2023-05-03T01:06:41.539Z,13.23
2023-05-03T01:09:11.111Z,14.90
2023-05-03T01:12:12.574Z,16.20
2023-05-03T01:14:58.508Z,15.30
2023-05-03T01:17:28.918Z,14.77
2023-05-03T01:20:11.263Z,15.15
2023-05-03T01:22:41.796Z,14.18
2023-05-03T01:25:12.873Z,15.38
2023-05-03T01:27:41.144Z,14.63
2023-05-03T01:30:12.527Z,14.75
2023-05-03T01:33:07.944Z,15.00
2023-05-03T01:35:52.936Z,14.23
2023-05-03T01:38:20.495Z,14.50
2023-05-03T01:40:55.920Z,13.80
2023-05-03T01:43:23.520Z,14.52
2023-05-03T01:45:50.986Z,15.10
2023-05-03T01:48:19.989Z,14.63
2023-05-03T01:50:47.331Z,14.25
2023-05-03T01:53:14.773Z,14.80
2023-05-03T01:55:43.729Z,14.80
2023-05-03T01:58:12.639Z,14.55
2023-05-03T02:00:39.979Z,14.95
2023-05-03T02:03:07.435Z,14.02
2023-05-03T02:05:35.487Z,15.00
2023-05-03T02:08:03.492Z,13.73
2023-05-03T02:10:30.779Z,14.25
2023-05-03T02:12:58.738Z,13.75
2023-05-03T02:15:26.103Z,15.20
2023-05-03T02:17:54.305Z,14.65
2023-05-03T02:20:22.032Z,14.43
2023-05-03T02:22:49.369Z,13.68
2023-05-03T02:25:16.657Z,13.68
2023-05-03T02:27:45.634Z,14.52
2023-05-03T02:30:13.462Z,14.02
2023-05-03T02:32:43.719Z,13.05
2023-05-03T02:35:11.388Z,14.23
2023-05-03T02:37:38.721Z,14.05
2023-05-03T02:40:11.270Z,13.38
2023-05-03T02:42:39.251Z,13.95
2023-05-03T02:45:08.467Z,13.27
2023-05-03T02:47:35.997Z,12.43
2023-05-03T02:50:03.688Z,14.13
2023-05-03T02:52:34.752Z,13.48
2023-05-03T02:55:02.294Z,13.23
2023-05-03T02:57:29.817Z,13.05
2023-05-03T02:59:58.548Z,13.27
2023-05-03T03:02:27.063Z,11.82
2023-05-03T03:04:54.704Z,11.93
2023-05-03T03:07:23.920Z,12.25
2023-05-03T03:09:55.313Z,11.32
2023-05-03T03:12:22.734Z,11.00
2023-05-03T03:14:50.332Z,11.93
2023-05-03T03:17:17.630Z,11.20
2023-05-03T03:19:45.009Z,10.70
2023-05-03T03:22:13.081Z,10.80
2023-05-03T03:24:40.488Z,10.40
2023-05-03T03:27:07.864Z,10.70
2023-05-03T03:29:35.552Z,10.10
2023-05-03T03:32:05.116Z,10.68
2023-05-03T03:34:33.102Z,10.15
2023-05-03T03:37:01.036Z,10.43
2023-05-03T03:39:29.354Z,11.55
2023-05-03T03:41:56.763Z,12.20
2023-05-03T03:44:24.143Z,11.85
2023-05-03T03:46:51.513Z,12.63
2023-05-03T03:49:19.631Z,12.30
2023-05-03T03:51:47.066Z,10.93
2023-05-03T03:54:14.627Z,11.05
2023-05-03T03:56:46.376Z,12.60
2023-05-03T03:59:13.918Z,11.75
2023-05-03T04:01:41.836Z,14.02
2023-05-03T04:04:10.070Z,14.52
2023-05-03T04:06:38.158Z,15.88
2023-05-03T04:09:10.462Z,15.07
2023-05-03T04:11:38.114Z,14.63
2023-05-03T04:14:06.315Z,15.07
2023-05-03T04:16:33.917Z,14.90
2023-05-03T04:19:03.644Z,14.68
2023-05-03T04:21:32.906Z,15.30
2023-05-03T04:24:04.427Z,14.15
2023-05-03T04:26:32.959Z,17.02
2023-05-03T04:29:10.843Z,16.27
2023-05-03T04:31:39.760Z,15.02
2023-05-03T04:34:07.750Z,13.40
2023-05-03T04:36:35.656Z,15.68
2023-05-03T04:39:03.727Z,13.57
2023-05-03T04:41:32.294Z,13.13
2023-05-03T04:43:59.812Z,11.45
2023-05-03T04:46:28.162Z,12.75
2023-05-03T04:48:56.457Z,12.82
2023-05-03T04:51:24.124Z,12.68
2023-05-03T04:53:53.412Z,12.68
2023-05-03T04:56:26.266Z,13.98
2023-05-03T04:58:59.191Z,12.35
2023-05-03T05:01:28.211Z,13.25
2023-05-03T05:03:59.904Z,12.90
2023-05-03T05:06:34.496Z,12.45
2023-05-03T05:09:02.918Z,13.65
2023-05-03T05:11:30.238Z,12.63
2023-05-03T05:13:58.481Z,13.50
2023-05-03T05:16:26.752Z,12.93
2023-05-03T05:18:54.590Z,12.93
2023-05-03T05:21:25.632Z,11.80
2023-05-03T05:23:53.167Z,13.18
2023-05-03T05:26:20.939Z,13.25
2023-05-03T05:28:49.993Z,13.75
2023-05-03T05:31:17.454Z,13.73
2023-05-03T05:33:44.776Z,15.50
2023-05-03T05:36:13.093Z,14.98
2023-05-03T05:38:41.492Z,16.98
2023-05-03T05:41:13.173Z,17.35
2023-05-03T05:43:43.085Z,16.65
2023-05-03T05:46:10.699Z,17.77
2023-05-03T05:48:39.302Z,17.40
2023-05-03T05:51:07.534Z,16.67
2023-05-03T05:53:34.893Z,18.02
2023-05-03T05:56:03.137Z,17.65
2023-05-03T05:58:32.958Z,18.23
2023-05-03T06:01:01.457Z,19.98
2023-05-03T06:03:31.855Z,18.05
2023-05-03T06:06:01.356Z,18.33
2023-05-03T06:08:28.827Z,19.25
2023-05-03T06:10:56.185Z,19.30
2023-05-03T06:13:25.015Z,19.33
2023-05-03T06:15:52.594Z,18.70
2023-05-03T06:18:20.042Z,19.77
2023-05-03T06:20:50.732Z,18.45
2023-05-03T06:23:19.293Z,18.38
2023-05-03T06:25:47.683Z,18.35
2023-05-03T06:28:17.178Z,18.30
2023-05-03T06:30:51.838Z,18.27
2023-05-03T06:35:49.348Z,18.25
2023-05-03T06:38:18.584Z,16.42
2023-05-03T06:40:46.823Z,16.80
2023-05-03T06:43:14.301Z,15.40
2023-05-03T06:45:51.594Z,15.98
2023-05-03T06:48:19.351Z,16.58
2023-05-03T06:50:46.844Z,17.02
2023-05-03T06:53:15.595Z,17.50
2023-05-03T06:55:46.398Z,17.15
2023-05-03T06:58:13.737Z,17.67
2023-05-03T07:00:41.189Z,16.90
2023-05-03T07:03:08.716Z,17.33
2023-05-03T07:05:36.357Z,17.58
2023-05-03T07:08:03.856Z,17.52
2023-05-03T07:10:31.611Z,17.88
2023-05-03T07:12:59.191Z,17.52
2023-05-03T07:15:26.567Z,18.75
2023-05-03T07:17:53.958Z,19.23
2023-05-03T07:20:21.549Z,18.23
2023-05-03T07:22:48.914Z,19.75
2023-05-03T07:25:17.832Z,26.85
2023-05-03T07:27:45.497Z,22.15
2023-05-03T07:30:13.245Z,21.00
2023-05-03T07:32:40.897Z,21.35
2023-05-03T07:35:09.267Z,20.13
2023-05-03T07:37:38.552Z,21.80
2023-05-03T07:40:07.208Z,22.10
2023-05-03T07:42:34.557Z,21.75
2023-05-03T07:45:02.369Z,20.85
2023-05-03T07:47:29.888Z,20.42
2023-05-03T07:49:57.211Z,20.73
2023-05-03T07:52:24.578Z,20.52
2023-05-03T07:54:53.260Z,20.45
2023-05-03T07:57:23.279Z,22.25
2023-05-03T07:59:51.046Z,21.60
2023-05-03T08:02:18.486Z,20.90
2023-05-03T08:04:46.242Z,25.17
2023-05-03T08:07:14.390Z,21.73
2023-05-03T08:09:41.817Z,21.83
2023-05-03T08:12:09.242Z,21.98
2023-05-03T08:14:37.684Z,22.55
2023-05-03T08:17:05.071Z,22.40
2023-05-03T08:19:32.426Z,22.23
2023-05-03T08:21:59.902Z,22.27
2023-05-03T08:24:27.223Z,23.02
2023-05-03T08:26:55.325Z,21.00
2023-05-03T08:29:22.784Z,22.73
2023-05-03T08:31:50.268Z,21.88
2023-05-03T08:34:17.801Z,22.92
2023-05-03T08:36:45.162Z,23.70
2023-05-03T08:39:15.270Z,23.40
2023-05-03T08:41:42.803Z,23.13
2023-05-03T08:44:12.129Z,22.77
2023-05-03T08:46:39.543Z,24.25
2023-05-03T08:49:07.476Z,22.65
2023-05-03T08:51:35.965Z,23.65
2023-05-03T08:54:03.971Z,22.92
2023-05-03T08:56:44.384Z,22.23
2023-05-03T08:59:11.927Z,23.33
2023-05-03T09:01:40.418Z,23.05
2023-05-03T09:04:09.779Z,23.83
2023-05-03T09:06:37.347Z,23.45
2023-05-03T09:09:07.510Z,25.08
2023-05-03T09:11:36.158Z,24.65
2023-05-03T09:14:14.737Z,22.83
2023-05-03T09:16:44.580Z,24.63
2023-05-03T09:19:13.008Z,24.08
2023-05-03T09:21:41.154Z,23.60
2023-05-03T09:24:27.269Z,25.20
2023-05-03T09:26:58.543Z,24.40
2023-05-03T09:29:30.889Z,23.73
2023-05-03T09:32:00.521Z,22.90
2023-05-03T09:34:28.025Z,23.92
2023-05-03T09:36:56.282Z,24.38
2023-05-03T09:39:23.781Z,29.17
2023-05-03T09:41:51.212Z,26.17
2023-05-03T09:44:18.542Z,23.80
2023-05-03T09:47:05.096Z,25.08
2023-05-03T09:49:33.066Z,21.75
2023-05-03T09:52:01.277Z,23.27
2023-05-03T09:54:31.276Z,23.65
2023-05-03T09:56:59.213Z,23.35
2023-05-03T09:59:26.735Z,22.42
2023-05-03T10:01:58.877Z,24.58
2023-05-03T10:04:28.057Z,24.75
2023-05-03T10:07:00.497Z,25.25
2023-05-03T10:09:38.126Z,26.38
2023-05-03T10:12:07.532Z,25.98
2023-05-03T10:14:35.485Z,24.25
2023-05-03T10:17:04.641Z,26.73
2023-05-03T10:19:37.885Z,25.45
2023-05-03T10:22:09.595Z,23.88
2023-05-03T10:25:02.565Z,23.67
2023-05-03T10:27:48.660Z,23.63
2023-05-03T10:30:33.103Z,25.73
2023-05-03T10:33:09.786Z,25.52
2023-05-03T10:35:39.973Z,25.08
2023-05-03T10:38:24.089Z,26.27
2023-05-03T10:40:52.054Z,25.67
2023-05-03T10:43:34.529Z,25.42
2023-05-03T10:46:05.986Z,25.80
2023-05-03T10:48:33.831Z,26.00
2023-05-03T10:51:30.669Z,24.98
2023-05-03T10:53:58.075Z,25.85
2023-05-03T10:56:25.741Z,24.75
2023-05-03T10:58:56.896Z,24.67
2023-05-03T11:01:25.259Z,26.00
2023-05-03T11:04:06.547Z,24.55
2023-05-03T11:06:36.059Z,23.92
2023-05-03T11:09:06.056Z,22.73
2023-05-03T11:11:34.724Z,22.30
2023-05-03T11:14:02.144Z,24.95
2023-05-03T11:16:29.689Z,25.23
2023-05-03T11:18:57.059Z,24.45
2023-05-03T11:21:24.402Z,25.83
2023-05-03T11:23:51.757Z,25.13
2023-05-03T11:26:22.421Z,26.92
2023-05-03T11:28:49.809Z,23.48
2023-05-03T11:31:17.197Z,21.95
2023-05-03T11:33:46.546Z,23.10
2023-05-03T11:36:15.259Z,23.42
2023-05-03T11:38:42.583Z,22.92
2023-05-03T11:41:16.809Z,24.55
2023-05-03T11:46:13.590Z,21.35
2023-05-03T11:48:42.689Z,21.95
2023-05-03T11:51:13.817Z,22.88
2023-05-03T11:53:42.834Z,22.80
2023-05-03T11:56:13.963Z,21.42
2023-05-03T11:58:56.037Z,19.27
2023-05-03T12:01:24.927Z,19.63
2023-05-03T12:04:00.140Z,20.38
2023-05-03T12:06:28.955Z,20.23
2023-05-03T12:08:57.332Z,20.15
2023-05-03T12:11:27.081Z,20.15
2023-05-03T12:13:58.964Z,20.48
2023-05-03T12:16:27.101Z,20.17
2023-05-03T12:18:58.799Z,19.13
2023-05-03T12:24:33.267Z,18.23
2023-05-03T12:27:03.234Z,18.02
2023-05-03T12:29:35.421Z,17.27
2023-05-03T12:32:04.827Z,16.85
2023-05-03T12:34:36.200Z,15.18
2023-05-03T12:37:05.588Z,15.18
2023-05-03T12:39:34.495Z,14.68
2023-05-03T12:42:08.052Z,13.13
2023-05-03T12:44:41.424Z,13.32
2023-05-03T12:47:10.538Z,13.07
2023-05-03T12:49:39.333Z,12.10
2023-05-03T12:54:41.529Z,13.15
2023-05-03T12:57:15.577Z,13.75
2023-05-03T12:59:44.238Z,14.82
2023-05-03T13:03:19.353Z,13.18
2023-05-03T13:05:12.067Z,11.50
2023-05-03T13:07:55.584Z,12.70
2023-05-03T13:10:24.598Z,12.00
2023-05-03T13:12:53.851Z,13.18
2023-05-03T13:15:21.212Z,11.75
2023-05-03T13:17:50.136Z,12.63
2023-05-03T13:20:20.316Z,12.98
2023-05-03T13:22:48.992Z,14.60
2023-05-03T13:25:16.485Z,12.85
2023-05-03T13:27:44.194Z,12.40
2023-05-03T13:30:11.777Z,12.45
2023-05-03T13:32:39.158Z,11.77
2023-05-03T13:35:07.707Z,13.00
2023-05-03T13:37:35.399Z,13.80
2023-05-03T13:40:03.046Z,14.88
2023-05-03T13:42:30.619Z,15.90
2023-05-03T13:44:58.658Z,14.55
2023-05-03T13:47:29.128Z,14.20
2023-05-03T13:50:00.696Z,14.88
2023-05-03T13:52:28.068Z,13.40
2023-05-03T13:54:55.530Z,12.32
2023-05-03T13:57:23.124Z,12.25
2023-05-03T13:59:50.988Z,12.40
2023-05-03T14:02:18.392Z,10.38
2023-05-03T14:04:46.476Z,10.52
2023-05-03T14:07:13.856Z,8.68
2023-05-03T14:09:42.179Z,11.55
2023-05-03T14:12:10.010Z,9.98
2023-05-03T14:14:37.491Z,10.18
2023-05-03T14:17:30.480Z,10.50
2023-05-03T14:20:01.160Z,9.35
2023-05-03T14:22:29.115Z,9.30
2023-05-03T14:24:56.697Z,7.60
2023-05-03T14:27:24.295Z,6.00
2023-05-03T14:29:51.931Z,6.03
2023-05-03T14:32:20.433Z,5.72
2023-05-03T14:34:47.976Z,6.60
2023-05-03T14:37:15.514Z,5.63
2023-05-03T14:39:42.834Z,6.07
2023-05-03T14:42:10.794Z,5.30
2023-05-03T14:44:38.223Z,5.85
2023-05-03T14:47:07.301Z,5.65
2023-05-03T14:49:40.487Z,5.78
2023-05-03T14:52:08.817Z,5.57
2023-05-03T14:54:37.343Z,6.32
2023-05-03T14:57:04.972Z,6.82
2023-05-03T14:59:33.249Z,7.30
2023-05-03T15:02:01.030Z,6.32
2023-05-03T15:04:29.132Z,6.25
2023-05-03T15:07:00.903Z,6.72
2023-05-03T15:09:28.605Z,6.07
2023-05-03T15:11:56.032Z,7.45
2023-05-03T15:14:23.533Z,6.70
2023-05-03T15:16:51.039Z,6.85
2023-05-03T15:19:18.431Z,6.07
2023-05-03T15:21:50.591Z,6.57
2023-05-03T15:24:18.032Z,6.57
2023-05-03T15:26:46.833Z,8.13
2023-05-03T15:29:15.318Z,8.00
2023-05-03T15:31:43.655Z,7.95
2023-05-03T15:34:12.321Z,7.88
2023-05-03T15:36:40.667Z,7.75
2023-05-03T15:39:09.327Z,6.93
2023-05-03T15:41:36.851Z,7.45
2023-05-03T15:44:05.508Z,7.03
2023-05-03T15:46:34.220Z,8.60
2023-05-03T15:49:01.855Z,7.18
2023-05-03T15:51:29.350Z,8.32
2023-05-03T15:53:56.788Z,7.50
2023-05-03T15:56:24.466Z,6.65
2023-05-03T15:58:51.847Z,7.38
2023-05-03T16:01:19.285Z,6.93
2023-05-03T16:03:47.994Z,7.57
2023-05-03T16:06:18.518Z,8.68
2023-05-03T16:08:45.980Z,8.35
2023-05-03T16:11:13.434Z,8.70
2023-05-03T16:13:40.952Z,9.00
2023-05-03T16:16:08.426Z,9.00
2023-05-03T16:18:35.914Z,9.02
2023-05-03T16:21:03.418Z,8.30
2023-05-03T16:23:30.907Z,9.13
2023-05-03T16:25:58.261Z,8.95
2023-05-03T16:28:25.606Z,9.40
2023-05-03T16:30:52.998Z,8.27
2023-05-03T16:33:20.418Z,9.25
2023-05-03T16:35:47.771Z,8.68
2023-05-03T16:38:15.093Z,8.73
2023-05-03T16:40:43.285Z,8.35
2023-05-03T16:43:10.656Z,8.05
2023-05-03T16:45:38.067Z,7.53
2023-05-03T16:48:08.151Z,7.65
2023-05-03T16:50:37.686Z,6.25
2023-05-03T16:53:05.202Z,6.90
2023-05-03T16:55:32.542Z,6.53
2023-05-03T16:58:00.081Z,7.10
2023-05-03T17:00:28.983Z,7.25
2023-05-03T17:02:56.619Z,6.80
2023-05-03T17:05:25.577Z,6.68
2023-05-03T17:07:53.037Z,7.60
2023-05-03T17:10:20.498Z,7.93
2023-05-03T17:12:48.167Z,7.53
2023-05-03T17:15:16.862Z,7.22
2023-05-03T17:17:44.287Z,6.07
2023-05-03T17:20:12.927Z,6.90
2023-05-03T17:22:40.350Z,6.53
2023-05-03T17:25:08.647Z,6.10
2023-05-03T17:27:39.033Z,6.25
2023-05-03T17:30:07.350Z,5.90
2023-05-03T17:32:34.867Z,5.93
2023-05-03T17:35:02.622Z,7.60
2023-05-03T17:37:29.978Z,7.45
2023-05-03T17:39:58.091Z,6.70
2023-05-03T17:42:25.908Z,7.47
2023-05-03T17:44:54.808Z,7.68
2023-05-03T17:47:22.981Z,7.32
2023-05-03T17:49:50.643Z,6.65
2023-05-03T17:52:18.164Z,6.60
2023-05-03T17:54:46.268Z,6.57
2023-05-03T17:57:13.603Z,6.80
2023-05-03T17:59:40.984Z,6.40
2023-05-03T18:02:09.030Z,6.65
2023-05-03T18:04:36.468Z,6.60
2023-05-03T18:07:03.792Z,6.30
2023-05-03T18:09:33.010Z,6.53
2023-05-03T18:12:01.977Z,6.35
2023-05-03T18:14:29.504Z,6.43
2023-05-03T18:16:57.106Z,5.80
2023-05-03T18:19:24.513Z,6.03
2023-05-03T18:21:51.976Z,6.03
2023-05-03T18:24:19.359Z,6.45
2023-05-03T18:26:47.171Z,6.70
2023-05-03T18:29:14.815Z,6.65
2023-05-03T18:31:42.256Z,98.43
2023-05-03T18:34:09.750Z,20.92
2023-05-03T18:36:37.127Z,8.80
2023-05-03T18:39:04.893Z,7.35
2023-05-03T18:41:32.304Z,7.50
2023-05-03T18:43:59.675Z,7.70
2023-05-03T18:46:27.190Z,7.70
2023-05-03T18:48:54.721Z,7.95
2023-05-03T18:51:23.149Z,7.30
2023-05-03T18:53:50.594Z,7.80
2023-05-03T18:56:17.958Z,7.78
2023-05-03T18:58:47.288Z,8.10
2023-05-03T19:01:14.687Z,8.93
2023-05-03T19:03:42.060Z,8.05
2023-05-03T19:06:10.060Z,9.40
2023-05-03T19:08:37.498Z,8.45
2023-05-03T19:11:09.046Z,10.00
2023-05-03T19:13:36.503Z,10.45
2023-05-03T19:16:04.075Z,9.35
2023-05-03T19:18:31.937Z,10.02
2023-05-03T19:20:59.490Z,9.65
2023-05-03T19:23:27.184Z,9.85
2023-05-03T19:25:54.582Z,10.95
2023-05-03T19:28:22.005Z,10.60
2023-05-03T19:30:51.887Z,9.93
2023-05-03T19:33:19.922Z,11.68
2023-05-03T19:35:47.591Z,11.73
2023-05-03T19:38:14.985Z,10.75
2023-05-03T19:40:42.502Z,11.25
2023-05-03T19:43:09.853Z,11.35
2023-05-03T19:45:46.373Z,12.27
2023-05-03T19:48:16.551Z,11.95
2023-05-03T19:50:44.605Z,12.25
2023-05-03T19:53:12.005Z,13.02
2023-05-03T19:55:39.331Z,16.27
2023-05-03T19:58:07.416Z,13.75
2023-05-03T20:00:34.825Z,13.27
2023-05-03T20:03:02.313Z,13.50
2023-05-03T20:05:29.730Z,12.88
2023-05-03T20:07:57.046Z,12.82
2023-05-03T20:10:24.801Z,13.27
2023-05-03T20:12:52.207Z,12.95
2023-05-03T20:15:19.605Z,13.40
2023-05-03T20:17:46.897Z,12.30
2023-05-03T20:20:16.326Z,13.88
2023-05-03T20:22:43.601Z,12.98
2023-05-03T20:25:11.020Z,16.52
2023-05-03T20:27:38.312Z,13.27
2023-05-03T20:30:06.625Z,13.35
2023-05-03T20:32:36.369Z,14.38
2023-05-03T20:35:05.017Z,14.15
2023-05-03T20:37:32.525Z,14.00
2023-05-03T20:40:00.187Z,14.27
2023-05-03T20:42:27.542Z,15.20
2023-05-03T20:44:54.872Z,13.75
2023-05-03T20:47:22.330Z,13.82
2023-05-03T20:49:49.653Z,15.50
2023-05-03T20:52:17.361Z,14.25
2023-05-03T20:54:46.536Z,14.98
2023-05-03T20:57:15.893Z,14.50
2023-05-03T20:59:44.283Z,14.65
2023-05-03T21:02:12.233Z,13.63
2023-05-03T21:04:39.668Z,14.93
2023-05-03T21:07:07.024Z,14.35
2023-05-03T21:09:34.419Z,12.48
2023-05-03T21:12:04.044Z,13.45
2023-05-03T21:14:31.458Z,13.45
2023-05-03T21:16:59.046Z,14.73
2023-05-03T21:19:26.508Z,13.40
2023-05-03T21:21:54.071Z,12.30
2023-05-03T21:24:21.457Z,11.90
2023-05-03T21:26:48.953Z,13.40
2023-05-03T21:29:17.350Z,13.25
2023-05-03T21:31:44.774Z,13.95
2023-05-03T21:34:12.098Z,13.00
2023-05-03T21:36:39.556Z,13.15
2023-05-03T21:39:07.081Z,13.10
2023-05-03T21:41:34.720Z,12.70
2023-05-03T21:44:02.257Z,13.57
2023-05-03T21:46:29.606Z,13.23
2023-05-03T21:48:57.076Z,11.95
2023-05-03T21:51:25.626Z,13.35
2023-05-03T21:53:53.506Z,12.90
2023-05-03T21:56:20.895Z,12.93
2023-05-03T21:58:48.328Z,12.88
2023-05-03T22:01:16.767Z,13.52
2023-05-03T22:03:44.358Z,12.60
2023-05-03T22:06:12.142Z,12.05
2023-05-03T22:08:39.452Z,12.25
2023-05-03T22:11:07.177Z,13.10
2023-05-03T22:13:39.129Z,12.73
2023-05-03T22:16:12.388Z,12.23
2023-05-03T22:18:39.872Z,13.95
2023-05-03T22:21:07.331Z,13.00
2023-05-03T22:23:34.804Z,14.15
2023-05-03T22:26:02.375Z,13.40
2023-05-03T22:28:29.658Z,14.00
2023-05-03T22:30:57.477Z,14.27
2023-05-03T22:33:24.967Z,14.18
2023-05-03T22:35:52.384Z,14.05
2023-05-03T22:38:19.680Z,13.82
2023-05-03T22:40:47.062Z,14.85
2023-05-03T22:43:14.409Z,14.43
2023-05-03T22:45:41.937Z,15.00
2023-05-03T22:48:09.367Z,14.30
2023-05-03T22:50:36.866Z,15.05
2023-05-03T22:53:04.239Z,14.63
2023-05-03T22:55:31.604Z,15.77
2023-05-03T22:57:58.985Z,15.85
2023-05-03T23:00:26.892Z,15.43
2023-05-03T23:02:54.751Z,16.88
2023-05-03T23:05:22.308Z,16.60
2023-05-03T23:07:49.774Z,16.65
2023-05-03T23:10:17.285Z,15.57
2023-05-03T23:12:44.976Z,16.60
2023-05-03T23:15:12.483Z,17.52
2023-05-03T23:17:40.008Z,16.70
2023-05-03T23:20:08.660Z,16.40
2023-05-03T23:22:35.937Z,17.65
2023-05-03T23:25:03.639Z,16.33
2023-05-03T23:27:31.440Z,16.10
2023-05-03T23:29:59.377Z,16.35
2023-05-03T23:32:27.169Z,16.58
2023-05-03T23:34:54.922Z,18.10
2023-05-03T23:37:22.232Z,16.27
2023-05-03T23:39:49.613Z,16.10
2023-05-03T23:42:16.915Z,16.00
2023-05-03T23:44:54.641Z,17.60
2023-05-03T23:47:23.086Z,16.52
2023-05-03T23:49:50.960Z,18.48
2023-05-03T23:52:19.923Z,17.67
2023-05-03T23:54:47.450Z,16.85
2023-05-03T23:57:14.818Z,17.60
2023-05-03T23:59:42.250Z,17.27
